createdAt,value
2023-01-27T00:00:56.837Z,19.80
2023-01-27T00:03:48.457Z,18.80
2023-01-27T00:06:40.177Z,17.40
2023-01-27T00:09:31.755Z,19.60
2023-01-27T00:12:42.496Z,20.00
2023-01-27T00:15:34.612Z,18.00
2023-01-27T00:18:26.453Z,18.40
2023-01-27T00:21:35.575Z,17.90
2023-01-27T00:24:39.505Z,19.60
2023-01-27T00:27:33.359Z,19.30
2023-01-27T00:30:25.318Z,19.80
2023-01-27T00:33:25.982Z,19.70
2023-01-27T00:36:17.589Z,20.10
2023-01-27T00:39:10.874Z,20.40
2023-01-27T00:42:01.892Z,18.20
2023-01-27T00:45:11.323Z,18.60
2023-01-27T00:48:02.963Z,19.40
2023-01-27T00:50:54.687Z,19.70
2023-01-27T00:53:46.407Z,22.20
2023-01-27T00:56:38.055Z,19.20
2023-01-27T00:59:29.630Z,19.40
2023-01-27T01:02:21.181Z,19.90
2023-01-27T01:05:12.871Z,19.90
2023-01-27T01:08:04.394Z,18.80
2023-01-27T01:10:57.126Z,19.30
2023-01-27T01:13:48.864Z,20.20
2023-01-27T01:16:40.431Z,19.50
2023-01-27T01:19:33.429Z,20.10
2023-01-27T01:22:25.189Z,21.40
2023-01-27T01:25:17.140Z,20.50
2023-01-27T01:28:08.311Z,20.10
2023-01-27T01:31:01.360Z,20.10
2023-01-27T01:33:54.058Z,23.30
2023-01-27T01:36:45.629Z,21.00
2023-01-27T01:39:37.339Z,20.70
2023-01-27T01:42:28.926Z,21.20
2023-01-27T01:45:53.968Z,21.30
2023-01-27T01:51:39.310Z,21.90
2023-01-27T01:54:31.793Z,22.00
2023-01-27T01:57:26.302Z,21.10
2023-01-27T02:00:18.931Z,21.00
2023-01-27T02:03:09.907Z,23.30
2023-01-27T02:06:01.536Z,21.10
2023-01-27T02:08:53.182Z,22.20
2023-01-27T02:11:44.836Z,22.40
2023-01-27T02:14:36.484Z,20.70
2023-01-27T02:17:28.277Z,21.30
2023-01-27T02:20:23.353Z,21.90
2023-01-27T02:23:23.226Z,21.40
2023-01-27T02:26:16.992Z,23.90
2023-01-27T02:29:09.354Z,24.60
2023-01-27T02:32:00.791Z,20.70
2023-01-27T02:34:52.507Z,25.30
2023-01-27T02:37:44.091Z,22.60
2023-01-27T02:40:35.894Z,20.70
2023-01-27T02:43:27.505Z,22.00
2023-01-27T02:46:19.467Z,23.70
2023-01-27T02:49:10.626Z,21.50
2023-01-27T02:52:02.250Z,23.00
2023-01-27T02:54:53.885Z,21.10
2023-01-27T02:57:45.438Z,18.90
2023-01-27T03:00:37.016Z,23.80
2023-01-27T03:03:28.650Z,21.40
2023-01-27T03:06:20.621Z,21.20
2023-01-27T03:09:12.368Z,23.00
2023-01-27T03:12:22.253Z,23.40
2023-01-27T03:15:31.885Z,20.60
2023-01-27T03:18:23.533Z,22.00
2023-01-27T03:21:15.259Z,22.40
2023-01-27T03:24:07.952Z,25.50
2023-01-27T03:26:59.642Z,22.10
2023-01-27T03:29:57.346Z,21.50
2023-01-27T03:32:49.697Z,22.20
2023-01-27T03:35:48.619Z,23.10
2023-01-27T03:38:57.152Z,20.90
2023-01-27T03:42:06.201Z,20.40
2023-01-27T03:45:15.838Z,23.40
2023-01-27T03:48:07.841Z,22.40
2023-01-27T03:51:01.022Z,20.60
2023-01-27T03:53:53.065Z,23.20
2023-01-27T03:56:44.669Z,27.10
2023-01-27T03:59:36.199Z,21.80
2023-01-27T04:02:45.413Z,24.10
2023-01-27T04:05:54.981Z,23.40
2023-01-27T04:08:46.569Z,25.60
2023-01-27T04:11:56.603Z,21.10
2023-01-27T04:14:49.053Z,25.80
2023-01-27T04:17:41.080Z,23.30
2023-01-27T04:20:32.018Z,22.70
2023-01-27T04:23:23.681Z,23.00
2023-01-27T04:26:15.390Z,22.10
2023-01-27T04:29:07.499Z,26.10
2023-01-27T04:31:59.359Z,24.10
2023-01-27T04:34:50.908Z,24.10
2023-01-27T04:37:42.543Z,24.70
2023-01-27T04:40:34.355Z,24.40
2023-01-27T04:43:25.985Z,21.90
2023-01-27T04:46:18.660Z,23.20
2023-01-27T04:49:11.107Z,22.80
2023-01-27T04:52:02.652Z,24.80
2023-01-27T04:54:54.253Z,26.30
2023-01-27T04:57:46.091Z,25.10
2023-01-27T05:00:37.720Z,24.60
2023-01-27T05:03:29.255Z,28.80
2023-01-27T05:06:20.829Z,29.10
2023-01-27T05:09:12.415Z,24.60
2023-01-27T05:12:04.033Z,23.60
2023-01-27T05:14:57.093Z,22.30
2023-01-27T05:17:48.760Z,24.80
2023-01-27T05:20:40.341Z,24.80
2023-01-27T05:23:37.825Z,26.30
2023-01-27T05:26:29.940Z,25.80
2023-01-27T05:29:21.568Z,22.20
2023-01-27T05:32:13.221Z,26.20
2023-01-27T05:35:05.383Z,26.30
2023-01-27T05:37:57.004Z,24.40
2023-01-27T05:40:48.729Z,27.50
2023-01-27T05:43:42.260Z,28.00
2023-01-27T05:46:35.316Z,26.70
2023-01-27T05:49:26.376Z,30.40
2023-01-27T05:52:18.009Z,27.60
2023-01-27T05:55:10.985Z,24.80
2023-01-27T05:58:02.297Z,22.50
2023-01-27T06:00:54.141Z,26.20
2023-01-27T06:03:45.837Z,27.40
2023-01-27T06:06:37.540Z,26.20
2023-01-27T06:09:29.247Z,26.10
2023-01-27T06:12:20.901Z,27.70
2023-01-27T06:15:14.004Z,26.80
2023-01-27T06:18:06.183Z,27.00
2023-01-27T06:21:06.946Z,28.00
2023-01-27T06:23:59.150Z,25.20
2023-01-27T06:26:50.216Z,25.30
2023-01-27T06:29:41.856Z,24.10
2023-01-27T06:32:33.456Z,23.20
2023-01-27T06:35:25.540Z,21.70
2023-01-27T06:38:17.209Z,22.70
2023-01-27T06:41:08.963Z,23.50
2023-01-27T06:44:00.581Z,27.00
2023-01-27T06:46:54.798Z,27.30
2023-01-27T06:49:45.856Z,27.10
2023-01-27T06:52:37.528Z,29.40
2023-01-27T06:55:29.120Z,29.60
2023-01-27T06:58:20.785Z,27.30
2023-01-27T07:01:12.546Z,28.30
2023-01-27T07:04:04.282Z,30.90
2023-01-27T07:06:55.883Z,31.80
2023-01-27T07:09:52.566Z,29.80
2023-01-27T07:12:44.790Z,31.20
2023-01-27T07:15:36.654Z,29.80
2023-01-27T07:18:28.037Z,29.40
2023-01-27T07:21:19.796Z,24.40
2023-01-27T07:24:12.144Z,28.10
2023-01-27T07:27:03.315Z,28.30
2023-01-27T07:29:56.034Z,27.50
2023-01-27T07:32:47.714Z,25.10
2023-01-27T07:35:39.843Z,31.20
2023-01-27T07:38:31.457Z,32.20
2023-01-27T07:41:24.940Z,27.00
2023-01-27T07:44:16.266Z,25.00
2023-01-27T07:47:08.305Z,24.20
2023-01-27T07:49:59.965Z,25.00
2023-01-27T07:52:51.551Z,24.80
2023-01-27T07:55:43.104Z,26.20
2023-01-27T07:58:34.698Z,20.80
2023-01-27T08:01:26.432Z,22.40
2023-01-27T08:04:18.191Z,23.40
2023-01-27T08:07:09.866Z,22.50
2023-01-27T08:10:01.547Z,20.30
2023-01-27T08:12:53.275Z,23.90
2023-01-27T08:15:45.638Z,23.30
2023-01-27T08:18:37.716Z,21.40
2023-01-27T08:21:32.827Z,18.80
2023-01-27T08:24:23.881Z,18.60
2023-01-27T08:27:15.770Z,23.20
2023-01-27T08:30:09.815Z,18.00
2023-01-27T08:33:00.949Z,18.70
2023-01-27T08:35:52.640Z,18.10
2023-01-27T08:38:44.631Z,18.40
2023-01-27T08:41:36.612Z,21.10
2023-01-27T08:44:29.082Z,18.50
2023-01-27T08:47:20.390Z,21.10
2023-01-27T08:50:13.412Z,17.70
2023-01-27T08:53:05.186Z,17.80
2023-01-27T08:55:58.476Z,17.10
2023-01-27T08:58:52.220Z,15.20
2023-01-27T09:01:43.481Z,14.30
2023-01-27T09:04:41.312Z,15.40
2023-01-27T09:07:33.251Z,14.30
2023-01-27T09:10:25.474Z,17.60
2023-01-27T09:13:18.220Z,14.40
2023-01-27T09:16:10.655Z,17.30
2023-01-27T09:19:02.180Z,14.70
2023-01-27T09:21:54.098Z,15.20
2023-01-27T09:24:45.897Z,15.20
2023-01-27T09:27:40.007Z,14.50
2023-01-27T09:30:31.815Z,14.90
2023-01-27T09:33:23.708Z,12.10
2023-01-27T09:36:17.491Z,13.00
2023-01-27T09:39:11.922Z,14.10
2023-01-27T09:42:23.450Z,12.00
2023-01-27T09:45:28.133Z,13.20
2023-01-27T09:49:01.280Z,14.00
2023-01-27T09:51:58.771Z,13.40
2023-01-27T09:55:08.773Z,13.80
2023-01-27T09:58:02.584Z,12.40
2023-01-27T10:00:58.371Z,12.50
2023-01-27T10:06:57.084Z,13.80
2023-01-27T10:10:25.530Z,15.50
2023-01-27T10:13:22.839Z,12.10
2023-01-27T10:16:39.448Z,12.20
2023-01-27T10:19:40.246Z,11.10
2023-01-27T10:22:35.291Z,13.50
2023-01-27T10:25:32.360Z,13.30
2023-01-27T10:28:25.312Z,12.40
2023-01-27T10:31:18.550Z,11.80
2023-01-27T10:34:14.442Z,12.80
2023-01-27T10:37:13.571Z,12.40
2023-01-27T10:40:08.570Z,12.30
2023-01-27T10:43:04.148Z,13.10
2023-01-27T10:45:58.038Z,11.20
2023-01-27T10:48:50.887Z,10.60
2023-01-27T10:51:45.517Z,12.80
2023-01-27T10:54:37.319Z,11.00
2023-01-27T10:57:30.361Z,11.20
2023-01-27T11:00:57.459Z,14.60
2023-01-27T11:03:41.171Z,11.20
2023-01-27T11:06:33.571Z,11.90
2023-01-27T11:09:28.472Z,12.30
2023-01-27T11:12:19.852Z,12.00
2023-01-27T11:15:20.568Z,11.50
2023-01-27T11:18:13.624Z,11.60
2023-01-27T11:21:05.776Z,15.10
2023-01-27T11:23:59.449Z,11.10
2023-01-27T11:26:55.586Z,11.50
2023-01-27T11:29:49.246Z,10.80
2023-01-27T11:32:46.209Z,14.00
2023-01-27T11:35:37.216Z,11.10
2023-01-27T11:38:29.247Z,10.40
2023-01-27T11:41:20.915Z,9.50
2023-01-27T11:44:17.781Z,8.80
2023-01-27T11:47:09.673Z,10.30
2023-01-27T11:50:00.693Z,10.40
2023-01-27T11:53:00.133Z,10.50
2023-01-27T11:55:53.399Z,10.00
2023-01-27T11:58:46.514Z,10.30
2023-01-27T12:01:47.239Z,10.60
2023-01-27T12:04:46.519Z,9.20
2023-01-27T12:07:43.543Z,8.90
2023-01-27T12:10:36.331Z,10.40
2023-01-27T12:13:28.701Z,9.20
2023-01-27T12:16:20.609Z,10.30
2023-01-27T12:19:21.627Z,10.60
2023-01-27T12:22:16.609Z,10.30
2023-01-27T12:25:15.369Z,9.50
2023-01-27T12:28:07.331Z,9.90
2023-01-27T12:31:03.333Z,10.20
2023-01-27T12:33:59.733Z,10.00
2023-01-27T12:36:51.374Z,10.70
2023-01-27T12:39:45.592Z,11.30
2023-01-27T12:42:39.447Z,9.40
2023-01-27T12:45:31.976Z,10.70
2023-01-27T12:48:24.062Z,10.50
2023-01-27T12:51:18.616Z,9.90
2023-01-27T12:54:21.807Z,10.30
2023-01-27T12:57:17.365Z,9.60
2023-01-27T13:00:15.094Z,12.10
2023-01-27T13:03:16.671Z,9.90
2023-01-27T13:06:08.729Z,9.30
2023-01-27T13:09:00.894Z,8.60
2023-01-27T13:11:52.583Z,9.30
2023-01-27T13:14:44.858Z,8.40
2023-01-27T13:17:42.615Z,8.70
2023-01-27T13:20:36.795Z,8.30
2023-01-27T13:23:29.305Z,9.40
2023-01-27T13:26:21.145Z,9.60
2023-01-27T13:29:16.020Z,8.30
2023-01-27T13:32:10.753Z,8.50
2023-01-27T13:35:05.938Z,8.40
2023-01-27T13:38:02.025Z,10.90
2023-01-27T13:40:53.023Z,8.70
2023-01-27T13:43:45.387Z,8.20
2023-01-27T13:46:39.498Z,9.30
2023-01-27T13:49:34.553Z,11.10
2023-01-27T13:52:26.277Z,8.90
2023-01-27T13:55:17.331Z,9.50
2023-01-27T13:58:10.372Z,9.80
2023-01-27T14:01:06.908Z,9.10
2023-01-27T14:04:30.240Z,8.10
2023-01-27T14:07:25.596Z,8.90
2023-01-27T14:10:21.494Z,8.70
2023-01-27T14:13:20.757Z,9.90
2023-01-27T14:16:16.676Z,8.50
2023-01-27T14:19:11.815Z,7.80
2023-01-27T14:22:06.030Z,8.60
2023-01-27T14:24:59.905Z,8.50
2023-01-27T14:27:53.460Z,8.80
2023-01-27T14:30:45.392Z,7.70
2023-01-27T14:33:46.726Z,8.50
2023-01-27T14:36:40.647Z,9.80
2023-01-27T14:39:34.720Z,8.40
2023-01-27T14:42:29.894Z,8.60
2023-01-27T14:45:25.053Z,8.50
2023-01-27T14:48:24.849Z,10.10
2023-01-27T14:55:14.541Z,9.10
2023-01-27T14:58:56.979Z,9.10
2023-01-27T15:02:09.393Z,7.80
2023-01-27T15:05:24.536Z,8.40
2023-01-27T15:08:32.724Z,9.10
2023-01-27T15:12:25.125Z,9.50
2023-01-27T15:16:12.004Z,8.40
2023-01-27T15:19:48.870Z,8.70
2023-01-27T15:23:10.874Z,9.10
2023-01-27T15:26:21.115Z,8.70
2023-01-27T15:29:23.024Z,10.50
2023-01-27T15:32:46.774Z,11.00
2023-01-27T15:36:03.433Z,8.60
2023-01-27T15:39:44.833Z,8.60
2023-01-27T15:46:38.219Z,9.50
2023-01-27T15:50:15.459Z,8.20
2023-01-27T15:53:39.426Z,11.20
2023-01-27T15:57:21.895Z,9.70
2023-01-27T16:00:31.698Z,8.70
2023-01-27T16:03:29.001Z,9.60
2023-01-27T16:06:27.030Z,10.00
2023-01-27T16:10:08.174Z,8.90
2023-01-27T16:13:29.540Z,8.10
2023-01-27T16:16:34.851Z,10.70
2023-01-27T16:19:26.145Z,9.00
2023-01-27T16:22:19.508Z,8.80
2023-01-27T16:25:20.143Z,8.20
2023-01-27T16:28:15.781Z,8.70
2023-01-27T16:31:12.109Z,9.30
2023-01-27T16:34:03.221Z,8.40
2023-01-27T16:37:15.070Z,9.50
2023-01-27T16:40:09.165Z,8.80
2023-01-27T16:43:12.240Z,9.40
2023-01-27T16:46:06.016Z,11.20
2023-01-27T16:48:57.019Z,10.40
2023-01-27T16:51:48.139Z,9.80
2023-01-27T16:54:43.101Z,10.40
2023-01-27T16:57:35.628Z,11.00
2023-01-27T17:00:28.534Z,9.40
2023-01-27T17:03:20.848Z,8.80
2023-01-27T17:06:16.986Z,8.50
2023-01-27T17:09:24.018Z,12.00
2023-01-27T17:12:31.264Z,9.80
2023-01-27T17:15:30.322Z,10.60
2023-01-27T17:18:21.333Z,9.20
2023-01-27T17:21:12.698Z,10.50
2023-01-27T17:24:05.734Z,10.10
2023-01-27T17:27:01.561Z,9.70
2023-01-27T17:29:54.779Z,9.20
2023-01-27T17:32:48.773Z,10.10
2023-01-27T17:35:40.552Z,11.60
2023-01-27T17:38:43.064Z,9.10
2023-01-27T17:41:37.854Z,10.00
2023-01-27T17:44:30.607Z,9.80
2023-01-27T17:47:22.111Z,9.40
2023-01-27T17:50:24.933Z,9.70
2023-01-27T17:53:16.961Z,9.60
2023-01-27T17:56:22.721Z,10.00
2023-01-27T17:59:20.001Z,8.90
2023-01-27T18:02:26.834Z,9.70
2023-01-27T18:05:27.125Z,13.20
2023-01-27T18:08:19.406Z,10.60
2023-01-27T18:11:24.039Z,10.10
2023-01-27T18:14:19.819Z,9.00
2023-01-27T18:17:28.343Z,10.20
2023-01-27T18:20:30.176Z,9.70
2023-01-27T18:23:22.464Z,8.80
2023-01-27T18:26:18.678Z,11.50
2023-01-27T18:29:14.185Z,9.00
2023-01-27T18:32:15.006Z,9.90
2023-01-27T18:35:20.195Z,10.10
2023-01-27T18:38:24.439Z,10.60
2023-01-27T18:41:24.615Z,11.50
2023-01-27T18:44:19.030Z,11.10
2023-01-27T18:47:33.105Z,9.50
2023-01-27T18:50:24.972Z,11.00
2023-01-27T18:53:17.880Z,9.80
2023-01-27T18:56:09.539Z,10.20
2023-01-27T18:59:00.609Z,11.00
2023-01-27T19:01:51.986Z,9.40
2023-01-27T19:04:43.214Z,9.00
2023-01-27T19:07:37.032Z,11.00
2023-01-27T19:10:29.422Z,8.60
2023-01-27T19:13:20.420Z,9.20
2023-01-27T19:16:13.574Z,10.10
2023-01-27T19:19:04.653Z,9.00
2023-01-27T19:21:55.973Z,9.50
2023-01-27T19:24:47.138Z,11.50
2023-01-27T19:27:38.287Z,10.40
2023-01-27T19:30:32.513Z,10.50
2023-01-27T19:33:24.534Z,12.30
2023-01-27T19:36:22.223Z,10.70
2023-01-27T19:39:16.835Z,9.40
2023-01-27T19:42:09.238Z,10.20
2023-01-27T19:45:00.192Z,10.50
2023-01-27T19:47:52.808Z,10.40
2023-01-27T19:50:44.431Z,10.10
2023-01-27T19:53:35.507Z,9.30
2023-01-27T19:56:30.189Z,9.90
2023-01-27T19:59:21.176Z,11.50
2023-01-27T20:02:13.004Z,11.30
2023-01-27T20:05:04.082Z,8.60
2023-01-27T20:07:56.725Z,11.30
2023-01-27T20:10:49.266Z,10.10
2023-01-27T20:13:40.420Z,8.30
2023-01-27T20:16:31.596Z,9.00
2023-01-27T20:19:23.094Z,10.20
2023-01-27T20:22:15.981Z,9.10
2023-01-27T20:25:11.847Z,9.80
2023-01-27T20:28:03.425Z,9.70
2023-01-27T20:30:54.660Z,10.10
2023-01-27T20:33:49.810Z,10.50
2023-01-27T20:36:40.915Z,10.70
2023-01-27T20:39:32.155Z,10.30
2023-01-27T20:42:23.167Z,9.60
2023-01-27T20:45:14.692Z,8.20
2023-01-27T20:48:06.066Z,9.40
2023-01-27T20:51:01.522Z,9.10
2023-01-27T20:53:53.575Z,9.20
2023-01-27T20:56:45.647Z,11.30
2023-01-27T20:59:36.603Z,11.10
2023-01-27T21:02:27.973Z,10.10
2023-01-27T21:05:19.380Z,8.70
2023-01-27T21:08:11.180Z,9.30
2023-01-27T21:11:04.118Z,8.90
2023-01-27T21:13:56.168Z,8.70
2023-01-27T21:16:47.230Z,9.40
2023-01-27T21:19:38.526Z,9.40
2023-01-27T21:22:29.612Z,8.80
2023-01-27T21:25:21.098Z,7.00
2023-01-27T21:28:12.106Z,9.40
2023-01-27T21:31:08.783Z,8.10
2023-01-27T21:34:01.121Z,7.60
2023-01-27T21:36:54.731Z,8.60
2023-01-27T21:39:45.949Z,8.80
2023-01-27T21:42:54.243Z,8.80
2023-01-27T21:45:45.344Z,8.30
2023-01-27T21:48:36.329Z,7.60
2023-01-27T21:51:27.360Z,8.90
2023-01-27T21:54:18.481Z,9.30
2023-01-27T21:57:09.575Z,7.30
2023-01-27T22:00:00.654Z,7.30
2023-01-27T22:02:56.499Z,7.60
2023-01-27T22:05:47.576Z,7.00
2023-01-27T22:08:38.811Z,7.60
2023-01-27T22:11:29.888Z,8.00
2023-01-27T22:14:21.192Z,7.80
2023-01-27T22:17:12.292Z,8.30
2023-01-27T22:20:03.693Z,7.90
2023-01-27T22:22:54.749Z,8.00
2023-01-27T22:25:50.965Z,8.70
2023-01-27T22:28:42.014Z,10.70
2023-01-27T22:31:33.717Z,8.30
2023-01-27T22:34:25.353Z,9.10
2023-01-27T22:37:17.277Z,8.80
2023-01-27T22:40:11.499Z,9.80
2023-01-27T22:43:09.197Z,7.70
2023-01-27T22:46:03.280Z,8.60
2023-01-27T22:48:55.292Z,7.70
2023-01-27T22:51:48.635Z,8.10
2023-01-27T22:54:40.605Z,8.60
2023-01-27T22:57:32.302Z,9.40
2023-01-27T23:00:25.282Z,8.00
2023-01-27T23:03:17.419Z,7.20
2023-01-27T23:06:10.189Z,10.20
2023-01-27T23:09:01.559Z,8.50
2023-01-27T23:11:53.222Z,7.70
2023-01-27T23:14:45.029Z,6.90
2023-01-27T23:17:36.644Z,7.50
2023-01-27T23:20:28.288Z,10.00
2023-01-27T23:23:20.588Z,8.20
2023-01-27T23:26:11.738Z,7.90
2023-01-27T23:29:05.132Z,7.50
2023-01-27T23:31:56.372Z,7.40
2023-01-27T23:34:48.255Z,6.70
2023-01-27T23:37:39.276Z,5.30
2023-01-27T23:40:30.865Z,7.00
2023-01-27T23:43:23.730Z,6.80
2023-01-27T23:46:15.491Z,6.60
2023-01-27T23:49:07.904Z,6.90
2023-01-27T23:51:59.574Z,7.70
2023-01-27T23:54:52.187Z,7.30
2023-01-27T23:57:43.825Z,7.60
